Main page
METAR-TAF:

METAR-TAF

Airports :

Dundee Airport

Dundee, Scotland

latitude: 56-27N, longitude: 003-01W, elevation: 4 m

Current weather observation

The report was made 5 hours and 12 minutes ago, at 20:20 UTC
Wind 21 kt from the West/Southwest
Temperature 5°C
Humidity 87%
Pressure 997 hPa
Visibility 10 km or more
Few clouds at a height of 1800 ft

METAR: EGPN 172020Z 25021KT 9999 FEW018 05/03 Q0997

Time: 01:32 (01:32 UTC)

Forecast

The report was made 8 hours and 36 minutes ago, at 16:56 UTC
Forecast valid from 17 at 18 UTC to 17 at 21 UTC
Wind 18 kt from the West/Southwest
Visibility 10 km or more
Scattered clouds at a height of 2000 ft
Temporary
from 17 at 18 UTC to 17 at 21 UTC
Wind 25 kt from the West/Southwest with gusts up to 35 kt
Probability 30% :
Temporary
from 17 at 18 UTC to 17 at 21 UTC
Visibility: 6000 m
rain showers

TAF: EGPN 171656Z 1718/1721 24018KT 9999 SCT020 TEMPO 1718/1721 25025G35KT PROB30 TEMPO 1718/1721 6000 SHRA

Weather observations and forecasts of more than 4000 airports (METAR and TAF reports).

The available stations are represented by yellow and red dots on the map.

Hover mouse over dot to see the name of the station.

Then click to see weather observations and forecasts.

To change the map : click on the green buttons with a black cross to zoom in, on the green button with a dash to zoom out, or on the green arrows for adjacent maps.


METAR-TAF: